Time;durP1;ratioP1;P1;durP2;ratioP2;P2;SDS_P1;SDS_P2;PMS_P1;PMS_P2;Temp;Humidity;BMP_temperature;BMP_pressure;BME280_temperature;BME280_humidity;BME280_pressure;Samples;Min_cycle;Max_cycle;Signal;HPM_P1;HPM_P2
2021/12/01 00:00:42;;;;;;;24.50;11.68;;;7.20;99.90;;;;;;5035052;28;20149;-79
2021/12/01 00:03:08;;;;;;;21.13;11.15;;;7.20;99.90;;;;;;5034653;28;20377;-80
2021/12/01 00:05:35;;;;;;;22.60;11.10;;;7.20;99.90;;;;;;5035508;28;20060;-80
2021/12/01 00:08:01;;;;;;;21.50;11.98;;;7.30;99.90;;;;;;5035008;28;20064;-80
2021/12/01 00:10:28;;;;;;;25.92;11.20;;;7.30;99.90;;;;;;5033963;28;20049;-80
2021/12/01 00:12:55;;;;;;;23.95;11.93;;;7.30;99.90;;;;;;5033588;28;20050;-80
2021/12/01 00:15:21;;;;;;;24.60;12.43;;;7.30;99.90;;;;;;5034706;28;20057;-79
2021/12/01 00:17:48;;;;;;;31.58;13.30;;;7.30;99.90;;;;;;5034010;28;20057;-79
2021/12/01 00:20:15;;;;;;;28.67;13.45;;;7.40;99.90;;;;;;5035231;28;20057;-80
2021/12/01 00:22:41;;;;;;;30.20;12.88;;;7.40;99.90;;;;;;5034430;28;20062;-80
2021/12/01 00:25:08;;;;;;;29.20;14.02;;;7.50;99.90;;;;;;5035168;28;20056;-79
2021/12/01 00:27:34;;;;;;;33.55;14.93;;;7.50;99.90;;;;;;5035468;28;20056;-79
2021/12/01 00:30:01;;;;;;;26.58;14.20;;;7.50;99.90;;;;;;5034528;28;20132;-81
2021/12/01 00:32:27;;;;;;;31.17;14.73;;;7.60;99.90;;;;;;5033601;28;20064;-81
2021/12/01 00:34:54;;;;;;;31.42;15.73;;;7.60;99.90;;;;;;5034532;28;20128;-81
2021/12/01 00:37:21;;;;;;;28.88;15.75;;;7.70;99.90;;;;;;5034404;28;20063;-79
2021/12/01 00:39:47;;;;;;;31.30;16.58;;;7.80;99.90;;;;;;5034327;28;20042;-80
2021/12/01 00:42:14;;;;;;;38.75;17.02;;;7.90;99.90;;;;;;5033299;28;20061;-80
2021/12/01 00:44:47;;;;;;;34.42;17.50;;;8.00;99.90;;;;;;5034209;28;20527;-80
2021/12/01 00:47:13;;;;;;;32.30;17.40;;;8.00;99.90;;;;;;5033373;28;20057;-80
2021/12/01 00:49:40;;;;;;;35.50;18.15;;;8.00;99.90;;;;;;5033228;28;20060;-80
2021/12/01 00:52:06;;;;;;;35.47;18.20;;;8.10;99.90;;;;;;5034261;28;20485;-80
2021/12/01 00:54:33;;;;;;;33.53;18.23;;;8.20;99.90;;;;;;5034111;28;20518;-80
2021/12/01 00:56:59;;;;;;;30.60;19.52;;;8.20;99.90;;;;;;5033722;28;20377;-80
2021/12/01 00:59:26;;;;;;;36.63;19.90;;;8.20;99.90;;;;;;5033992;28;20046;-80
2021/12/01 01:01:53;;;;;;;28.05;18.42;;;8.40;99.90;;;;;;5033649;28;20424;-80
2021/12/01 01:04:19;;;;;;;33.25;20.48;;;8.40;99.90;;;;;;5034208;28;20045;-80
2021/12/01 01:06:46;;;;;;;34.75;19.75;;;8.50;99.90;;;;;;5033890;28;20056;-80
2021/12/01 01:09:12;;;;;;;30.13;21.02;;;8.50;99.90;;;;;;5033239;28;20054;-79
2021/12/01 01:17:07;;;;;;;27.27;19.88;;;8.60;99.90;;;;;;5032882;28;20099;-80
2021/12/01 01:19:34;;;;;;;28.63;19.75;;;8.60;99.90;;;;;;5033668;28;20381;-80
2021/12/01 01:22:00;;;;;;;38.22;20.63;;;8.70;99.90;;;;;;5033796;28;20049;-80
2021/12/01 01:24:27;;;;;;;37.80;18.98;;;8.70;99.90;;;;;;5032466;28;20385;-80
2021/12/01 01:26:56;;;;;;;29.85;19.73;;;8.70;99.90;;;;;;5032036;28;20508;-80
2021/12/01 01:29:22;;;;;;;24.20;18.02;;;8.80;99.90;;;;;;5032692;28;20092;-80
2021/12/01 01:31:49;;;;;;;31.23;19.67;;;8.80;99.90;;;;;;5033282;28;20408;-80
2021/12/01 01:34:15;;;;;;;25.38;18.20;;;8.80;99.90;;;;;;5032606;28;20080;-80
2021/12/01 01:36:42;;;;;;;22.80;18.25;;;8.80;99.90;;;;;;5032404;28;20392;-79
2021/12/01 01:39:08;;;;;;;27.50;16.73;;;8.90;99.90;;;;;;5032340;28;20489;-79
2021/12/01 01:41:35;;;;;;;28.00;18.10;;;8.90;99.90;;;;;;5033574;28;20057;-80
2021/12/01 01:44:01;;;;;;;30.67;16.27;;;9.00;99.90;;;;;;5033867;28;20046;-80
2021/12/01 01:46:28;;;;;;;30.95;17.73;;;9.00;99.90;;;;;;5032787;28;20100;-80
2021/12/01 01:48:56;;;;;;;27.75;17.67;;;9.00;99.90;;;;;;5032437;28;20065;-80
2021/12/01 01:51:23;;;;;;;26.15;17.75;;;9.00;99.90;;;;;;5032387;28;20107;-80
2021/12/01 01:53:51;;;;;;;26.35;15.73;;;9.10;99.90;;;;;;5032369;28;20049;-79
2021/12/01 01:56:18;;;;;;;26.75;14.40;;;9.10;99.90;;;;;;5032353;28;20046;-80
2021/12/01 01:58:45;;;;;;;21.30;15.52;;;9.10;99.90;;;;;;5032961;28;20528;-79
2021/12/01 02:01:14;;;;;;;24.45;15.40;;;9.10;99.90;;;;;;5032444;28;20401;-80
2021/12/01 02:03:41;;;;;;;18.58;13.57;;;9.20;99.90;;;;;;5033397;28;20050;-80
2021/12/01 02:06:07;;;;;;;19.20;13.52;;;9.20;99.90;;;;;;5033895;28;20057;-81
2021/12/01 02:08:36;;;;;;;22.08;12.63;;;9.20;99.90;;;;;;5033370;28;20057;-81
2021/12/01 02:11:02;;;;;;;24.10;12.50;;;9.20;99.90;;;;;;5033221;28;20107;-81
2021/12/01 02:13:29;;;;;;;13.88;10.27;;;9.20;99.90;;;;;;5032260;28;20061;-81
2021/12/01 02:15:55;;;;;;;21.08;9.88;;;9.20;99.90;;;;;;5031946;28;20452;-80
2021/12/01 02:18:22;;;;;;;13.73;8.85;;;9.20;99.90;;;;;;5033080;28;20481;-80
2021/12/01 02:20:48;;;;;;;17.83;8.40;;;9.30;99.90;;;;;;5031803;28;20488;-80
2021/12/01 02:23:15;;;;;;;14.13;6.40;;;9.30;99.90;;;;;;5032509;28;20060;-80
2021/12/01 02:25:41;;;;;;;10.93;6.03;;;9.30;99.90;;;;;;5032153;28;20052;-80
2021/12/01 02:28:08;;;;;;;7.70;5.80;;;9.30;99.90;;;;;;5033085;28;20053;-80
2021/12/01 02:30:34;;;;;;;9.23;5.43;;;9.30;99.90;;;;;;5033180;28;20084;-81
2021/12/01 02:33:01;;;;;;;8.93;6.72;;;9.30;99.90;;;;;;5032747;28;20119;-81
2021/12/01 02:35:27;;;;;;;8.38;6.53;;;9.30;99.90;;;;;;5033819;28;20052;-81
2021/12/01 02:37:54;;;;;;;10.20;6.90;;;9.30;99.90;;;;;;5033035;28;20057;-81
2021/12/01 02:40:20;;;;;;;10.32;7.00;;;9.20;99.90;;;;;;5035722;28;20389;-79
2021/12/01 02:42:47;;;;;;;7.97;6.40;;;9.20;99.90;;;;;;5035485;28;20408;-80
2021/12/01 02:45:13;;;;;;;13.55;7.85;;;9.20;99.90;;;;;;5035326;28;20398;-81
2021/12/01 02:47:40;;;;;;;11.85;8.02;;;9.10;99.90;;;;;;5035684;28;20496;-81
2021/12/01 02:50:07;;;;;;;10.65;8.35;;;9.10;99.90;;;;;;5036541;28;20057;-81
2021/12/01 02:52:33;;;;;;;11.52;8.18;;;9.10;99.90;;;;;;5035614;28;20056;-81
2021/12/01 02:55:00;;;;;;;13.68;7.55;;;9.10;99.90;;;;;;5036353;28;20045;-81
2021/12/01 02:57:26;;;;;;;12.25;8.52;;;9.00;99.90;;;;;;5036446;28;20056;-81
2021/12/01 02:59:53;;;;;;;14.68;8.95;;;9.00;99.90;;;;;;5036141;28;20045;-81
2021/12/01 03:02:19;;;;;;;13.38;7.35;;;9.00;99.90;;;;;;5037093;28;20053;-81
2021/12/01 03:04:46;;;;;;;8.93;6.75;;;9.00;99.90;;;;;;5035517;28;20060;-79
2021/12/01 03:07:12;;;;;;;11.55;7.55;;;9.10;99.90;;;;;;5035307;28;20049;-80
2021/12/01 03:09:39;;;;;;;9.52;6.10;;;9.10;99.90;;;;;;5035224;28;20061;-80
2021/12/01 03:12:05;;;;;;;10.13;6.40;;;9.10;99.90;;;;;;5036108;28;20052;-80
2021/12/01 03:14:32;;;;;;;10.23;5.65;;;9.10;99.90;;;;;;5035020;28;20046;-80
2021/12/01 03:16:58;;;;;;;5.70;4.85;;;9.20;99.90;;;;;;5035314;28;20061;-80
2021/12/01 03:19:25;;;;;;;7.07;4.72;;;9.20;99.90;;;;;;5036177;28;20084;-81
2021/12/01 03:21:52;;;;;;;6.32;3.88;;;9.30;99.90;;;;;;5035940;28;20105;-80
2021/12/01 03:24:18;;;;;;;4.82;3.78;;;9.30;99.90;;;;;;5036758;28;20049;-81
2021/12/01 03:26:45;;;;;;;2.33;2.10;;;9.30;99.90;;;;;;5035851;28;20076;-81
2021/12/01 03:29:14;;;;;;;3.13;2.20;;;9.30;99.90;;;;;;5036531;28;20470;-81
2021/12/01 03:31:40;;;;;;;6.07;2.30;;;9.40;99.90;;;;;;5036408;28;20059;-81
2021/12/01 03:34:07;;;;;;;4.18;3.05;;;9.40;99.90;;;;;;5035731;28;20057;-81
2021/12/01 03:36:33;;;;;;;3.75;3.10;;;9.40;99.90;;;;;;5035324;28;20413;-81
2021/12/01 03:39:00;;;;;;;4.55;3.00;;;9.40;99.90;;;;;;5036064;28;20514;-81
2021/12/01 03:41:27;;;;;;;3.13;2.85;;;9.40;99.90;;;;;;5035538;28;20516;-81
2021/12/01 03:43:53;;;;;;;6.70;3.42;;;9.40;99.90;;;;;;5036256;28;20049;-81
2021/12/01 03:46:21;;;;;;;3.13;2.65;;;9.40;99.90;;;;;;5035491;28;20054;-81
2021/12/01 03:48:48;;;;;;;4.10;2.50;;;9.30;99.90;;;;;;5035410;28;20103;-82
2021/12/01 03:51:14;;;;;;;2.58;2.38;;;9.40;99.90;;;;;;5033405;28;20417;-81
2021/12/01 03:53:41;;;;;;;3.15;1.75;;;9.40;99.90;;;;;;5035400;28;20102;-81
2021/12/01 03:56:08;;;;;;;1.90;1.73;;;9.40;99.90;;;;;;5034511;28;20093;-81
2021/12/01 03:58:34;;;;;;;2.75;1.70;;;9.40;99.90;;;;;;5035383;28;20477;-81
2021/12/01 04:01:01;;;;;;;2.40;1.63;;;9.40;99.90;;;;;;5035157;28;20045;-81
2021/12/01 04:03:27;;;;;;;2.90;1.70;;;9.50;99.90;;;;;;5035136;28;20049;-80
2021/12/01 04:05:54;;;;;;;2.05;1.15;;;9.50;99.90;;;;;;5035099;28;20481;-79
2021/12/01 04:08:20;;;;;;;3.05;1.40;;;9.50;99.90;;;;;;5034869;28;20144;-80
2021/12/01 04:10:47;;;;;;;3.97;1.70;;;9.50;99.90;;;;;;5035121;28;20473;-80
2021/12/01 04:13:13;;;;;;;3.35;1.45;;;9.50;99.90;;;;;;5033982;28;20460;-81
2021/12/01 04:15:40;;;;;;;2.30;1.45;;;9.50;99.90;;;;;;5035286;28;20053;-81
2021/12/01 04:18:06;;;;;;;5.65;1.48;;;9.50;99.90;;;;;;5034687;28;20049;-81
2021/12/01 04:20:33;;;;;;;2.38;1.30;;;9.40;99.90;;;;;;5034699;28;20053;-80
2021/12/01 04:23:00;;;;;;;4.00;1.35;;;9.40;99.90;;;;;;5034791;28;20049;-81
2021/12/01 04:25:26;;;;;;;3.33;1.95;;;9.50;99.90;;;;;;5034080;28;20054;-81
2021/12/01 04:27:53;;;;;;;9.88;1.80;;;9.40;99.90;;;;;;5035272;28;20136;-80
2021/12/01 04:30:22;;;;;;;7.22;2.03;;;9.40;99.90;;;;;;5034699;28;20103;-81
2021/12/01 04:32:49;;;;;;;4.57;2.25;;;9.40;99.90;;;;;;5033984;28;20061;-81
2021/12/01 04:35:17;;;;;;;3.20;2.03;;;9.40;99.90;;;;;;5034482;28;20056;-80
2021/12/01 04:37:44;;;;;;;6.13;1.95;;;9.40;99.90;;;;;;5034590;28;20057;-80
2021/12/01 04:40:10;;;;;;;4.40;2.28;;;9.40;99.90;;;;;;5034558;28;20049;-80
2021/12/01 04:42:37;;;;;;;5.28;2.13;;;9.40;99.90;;;;;;5034441;28;20469;-80
2021/12/01 04:45:04;;;;;;;8.55;2.85;;;9.40;99.90;;;;;;5033453;28;20381;-80
2021/12/01 04:47:37;;;;;;;3.90;2.22;;;9.40;99.90;;;;;;5034397;28;20053;-81
2021/12/01 04:50:03;;;;;;;3.00;2.28;;;9.40;99.90;;;;;;5033319;28;20111;-81
2021/12/01 04:52:30;;;;;;;2.78;1.85;;;9.30;99.90;;;;;;5033047;28;20059;-81
2021/12/01 04:54:56;;;;;;;3.78;2.55;;;9.30;99.90;;;;;;5033914;28;20485;-79
2021/12/01 04:57:23;;;;;;;5.97;2.45;;;9.30;99.90;;;;;;5033728;28;20064;-81
2021/12/01 04:59:50;;;;;;;7.57;2.60;;;9.30;99.90;;;;;;5033035;28;20397;-81
2021/12/01 05:02:16;;;;;;;3.47;2.05;;;9.30;99.90;;;;;;5033432;28;20440;-80
2021/12/01 05:04:43;;;;;;;6.40;2.45;;;9.30;99.90;;;;;;5034040;28;20488;-80
2021/12/01 05:07:09;;;;;;;4.47;2.08;;;9.30;99.90;;;;;;5033101;28;20045;-81
2021/12/01 05:09:36;;;;;;;5.95;1.52;;;9.30;99.90;;;;;;5033051;28;20064;-80
2021/12/01 05:12:02;;;;;;;3.00;2.13;;;9.30;99.90;;;;;;5032935;28;20053;-80
2021/12/01 05:14:29;;;;;;;2.25;1.30;;;9.40;99.90;;;;;;5033254;28;20176;-81
2021/12/01 05:16:55;;;;;;;2.50;2.30;;;9.30;99.90;;;;;;5034039;28;20053;-81
2021/12/01 05:19:22;;;;;;;4.05;2.67;;;9.40;99.90;;;;;;5032371;28;20064;-81
2021/12/01 05:21:48;;;;;;;2.03;1.70;;;9.30;99.90;;;;;;5032536;28;20055;-81
2021/12/01 05:24:15;;;;;;;5.63;2.08;;;9.30;99.90;;;;;;5032974;28;20053;-81
2021/12/01 05:26:41;;;;;;;5.57;2.50;;;9.30;99.90;;;;;;5033819;28;20053;-81
2021/12/01 05:29:08;;;;;;;3.88;2.88;;;9.30;99.90;;;;;;5033590;28;20052;-80
2021/12/01 05:31:34;;;;;;;2.20;2.00;;;9.30;99.90;;;;;;5033855;28;20049;-81
2021/12/01 05:34:01;;;;;;;2.45;1.90;;;9.30;99.90;;;;;;5033527;28;20085;-80
2021/12/01 05:36:28;;;;;;;2.50;2.30;;;9.20;99.90;;;;;;5033677;28;20060;-81
2021/12/01 05:38:54;;;;;;;2.05;1.80;;;9.20;99.90;;;;;;5033643;28;20107;-80
2021/12/01 05:41:21;;;;;;;2.15;1.88;;;9.20;99.90;;;;;;5032945;28;20072;-81
2021/12/01 05:43:47;;;;;;;2.33;1.98;;;9.20;99.90;;;;;;5033645;28;20045;-81
2021/12/01 05:46:14;;;;;;;1.75;1.60;;;9.20;99.90;;;;;;5034014;28;20076;-81
2021/12/01 05:48:40;;;;;;;1.58;1.42;;;9.20;99.90;;;;;;5033317;28;20504;-81
2021/12/01 05:51:07;;;;;;;2.28;1.92;;;9.20;99.90;;;;;;5033506;28;20265;-80
2021/12/01 05:53:33;;;;;;;2.95;1.75;;;9.20;99.90;;;;;;5033642;28;20049;-79
2021/12/01 05:56:00;;;;;;;1.48;1.38;;;9.20;99.90;;;;;;5033384;28;20493;-78
2021/12/01 05:58:27;;;;;;;1.95;1.67;;;9.10;99.90;;;;;;5032183;28;20390;-80
2021/12/01 06:00:53;;;;;;;1.38;1.27;;;9.10;99.90;;;;;;5032258;28;20042;-81
2021/12/01 06:03:20;;;;;;;1.58;1.45;;;9.10;99.90;;;;;;5033319;28;20049;-80
2021/12/01 06:05:47;;;;;;;2.13;1.75;;;9.10;99.90;;;;;;5032045;28;20052;-80
2021/12/01 06:08:13;;;;;;;2.05;1.80;;;9.10;99.90;;;;;;5033320;28;20056;-80
2021/12/01 06:10:40;;;;;;;1.55;1.20;;;9.00;99.90;;;;;;5032777;28;20049;-80
2021/12/01 06:13:06;;;;;;;2.20;2.00;;;9.00;99.90;;;;;;5033710;28;20060;-80
2021/12/01 06:15:33;;;;;;;1.95;1.75;;;9.00;99.90;;;;;;5036292;28;20053;-81
2021/12/01 06:17:59;;;;;;;2.05;1.83;;;9.00;99.90;;;;;;5037215;28;20052;-81
2021/12/01 06:20:26;;;;;;;2.00;1.80;;;9.00;99.90;;;;;;5037304;28;20096;-80
2021/12/01 06:22:52;;;;;;;2.10;1.77;;;9.00;99.90;;;;;;5036021;28;20487;-81
2021/12/01 06:25:19;;;;;;;1.60;1.50;;;8.90;99.90;;;;;;5035983;28;20057;-81
2021/12/01 06:27:45;;;;;;;2.03;1.83;;;8.90;99.90;;;;;;5037675;28;20377;-81
2021/12/01 06:30:12;;;;;;;2.00;1.77;;;8.90;99.90;;;;;;5036438;28;20404;-80
2021/12/01 06:32:39;;;;;;;1.75;1.60;;;8.90;99.90;;;;;;5036661;28;20391;-80
2021/12/01 06:35:05;;;;;;;2.15;1.60;;;8.90;99.90;;;;;;5037715;28;20053;-80
2021/12/01 06:37:32;;;;;;;1.50;1.40;;;8.90;99.90;;;;;;5036866;28;20068;-80
2021/12/01 06:39:58;;;;;;;1.92;1.63;;;8.90;99.90;;;;;;5036645;28;20137;-80
2021/12/01 06:42:25;;;;;;;3.35;2.10;;;8.90;99.90;;;;;;5036644;28;20049;-80
2021/12/01 06:44:51;;;;;;;3.47;2.17;;;8.80;99.90;;;;;;5035304;28;20515;-80
2021/12/01 06:47:18;;;;;;;5.20;1.58;;;8.80;99.90;;;;;;5037006;28;20054;-80
2021/12/01 06:49:45;;;;;;;1.58;1.48;;;8.80;99.90;;;;;;5036618;28;20060;-80
2021/12/01 06:52:12;;;;;;;2.17;1.17;;;8.80;99.90;;;;;;5035326;28;20058;-80
2021/12/01 06:54:39;;;;;;;1.40;1.30;;;8.80;99.90;;;;;;5036976;28;20058;-80
2021/12/01 06:57:05;;;;;;;2.22;1.40;;;8.80;99.90;;;;;;5036312;28;20053;-79
2021/12/01 06:59:32;;;;;;;2.53;1.65;;;8.70;99.90;;;;;;5036081;28;20472;-80
2021/12/01 07:01:58;;;;;;;1.52;1.42;;;8.70;99.90;;;;;;5036217;28;20485;-80
2021/12/01 07:04:25;;;;;;;1.92;1.73;;;8.70;99.90;;;;;;5036696;28;20448;-80
2021/12/01 07:06:51;;;;;;;1.75;1.45;;;8.80;99.90;;;;;;5035190;28;20406;-80
2021/12/01 07:09:20;;;;;;;1.85;1.65;;;8.70;99.90;;;;;;5036075;28;20049;-80
2021/12/01 07:11:47;;;;;;;1.85;1.70;;;8.70;99.90;;;;;;5035068;28;20054;-80
2021/12/01 07:14:14;;;;;;;1.92;1.75;;;8.70;99.90;;;;;;5036744;28;20049;-80
2021/12/01 07:16:40;;;;;;;1.63;1.52;;;8.70;99.90;;;;;;5035956;28;20053;-81
2021/12/01 07:19:07;;;;;;;1.63;1.42;;;8.70;99.90;;;;;;5034648;28;20065;-79
2021/12/01 07:21:35;;;;;;;7.32;1.70;;;8.70;99.90;;;;;;5035927;28;20138;-80
2021/12/01 07:24:01;;;;;;;3.47;1.83;;;8.70;99.90;;;;;;5036611;28;20072;-81
2021/12/01 07:26:28;;;;;;;2.10;1.73;;;8.70;99.90;;;;;;5034637;28;20490;-80
2021/12/01 07:28:54;;;;;;;2.47;1.95;;;8.70;99.90;;;;;;5035792;28;20146;-81
2021/12/01 07:31:21;;;;;;;2.83;1.63;;;8.60;99.90;;;;;;5035824;28;20405;-81
2021/12/01 07:33:48;;;;;;;1.48;1.38;;;8.60;99.90;;;;;;5036471;28;20045;-81
2021/12/01 07:36:14;;;;;;;2.40;1.85;;;8.60;99.90;;;;;;5036089;28;20049;-80
2021/12/01 07:38:41;;;;;;;2.33;1.88;;;8.60;99.90;;;;;;5035184;28;20488;-81
2021/12/01 07:41:07;;;;;;;1.58;1.40;;;8.60;99.90;;;;;;5035345;28;20065;-79
2021/12/01 07:43:34;;;;;;;1.20;1.10;;;8.60;99.90;;;;;;5036034;28;20095;-80
2021/12/01 07:46:01;;;;;;;2.35;1.77;;;8.60;99.90;;;;;;5035248;28;20049;-80
2021/12/01 07:48:27;;;;;;;2.38;1.88;;;8.60;99.90;;;;;;5035066;28;20137;-81
2021/12/01 07:50:55;;;;;;;2.08;1.88;;;8.50;99.90;;;;;;5034615;28;20049;-80
2021/12/01 07:53:21;;;;;;;1.25;1.15;;;8.60;99.90;;;;;;5035373;28;20136;-81
2021/12/01 07:55:48;;;;;;;2.67;1.75;;;8.60;99.90;;;;;;5035360;28;20472;-81
2021/12/01 07:58:14;;;;;;;1.17;1.08;;;8.60;99.90;;;;;;5033973;28;20132;-80
2021/12/01 08:00:41;;;;;;;2.72;1.90;;;8.50;99.90;;;;;;5035104;28;20049;-81
2021/12/01 08:03:07;;;;;;;1.60;1.50;;;8.50;99.90;;;;;;5035703;28;20064;-80
2021/12/01 08:05:34;;;;;;;1.90;1.80;;;8.60;99.90;;;;;;5035074;28;20045;-80
2021/12/01 08:08:01;;;;;;;2.75;2.20;;;8.60;99.90;;;;;;5034062;28;20053;-81
2021/12/01 08:10:27;;;;;;;5.90;1.95;;;8.60;99.90;;;;;;5034635;28;20493;-81
2021/12/01 08:12:54;;;;;;;1.95;1.75;;;8.60;99.90;;;;;;5033860;28;20056;-80
2021/12/01 08:15:21;;;;;;;1.50;1.40;;;8.60;99.90;;;;;;5034859;28;20052;-81
2021/12/01 08:17:48;;;;;;;1.85;1.52;;;8.60;99.90;;;;;;5033856;28;20061;-80
2021/12/01 08:20:14;;;;;;;2.03;1.85;;;8.60;99.90;;;;;;5033760;28;20065;-79
2021/12/01 08:22:41;;;;;;;2.90;1.77;;;8.60;99.90;;;;;;5034460;28;20056;-81
2021/12/01 08:25:07;;;;;;;1.48;1.38;;;8.60;99.90;;;;;;5033585;28;20062;-81
2021/12/01 08:27:34;;;;;;;2.45;1.90;;;8.60;99.90;;;;;;5033409;28;20049;-81
2021/12/01 08:30:00;;;;;;;2.55;2.10;;;8.60;99.90;;;;;;5034247;28;20049;-81
2021/12/01 08:32:27;;;;;;;2.28;1.98;;;8.60;99.90;;;;;;5032697;28;20496;-80
2021/12/01 08:34:53;;;;;;;5.53;1.77;;;8.70;99.90;;;;;;5033628;28;20392;-81
2021/12/01 08:37:20;;;;;;;3.90;2.42;;;8.70;99.90;;;;;;5034010;28;20058;-81
2021/12/01 08:39:48;;;;;;;2.92;2.65;;;8.70;99.90;;;;;;5034545;28;20058;-81
2021/12/01 08:42:14;;;;;;;3.15;2.53;;;8.70;99.90;;;;;;5032714;28;20049;-80
2021/12/01 08:44:44;;;;;;;2.50;2.30;;;8.70;99.90;;;;;;5034002;28;20052;-81
2021/12/01 08:47:11;;;;;;;3.83;2.28;;;8.70;99.90;;;;;;5034298;28;20049;-81
2021/12/01 08:49:38;;;;;;;6.60;2.63;;;8.80;99.90;;;;;;5032868;28;20062;-81
2021/12/01 08:52:04;;;;;;;3.88;2.60;;;8.80;99.90;;;;;;5033785;28;20491;-81
2021/12/01 08:54:31;;;;;;;2.60;2.35;;;8.90;99.90;;;;;;5032471;28;20057;-82
2021/12/01 08:56:58;;;;;;;3.72;2.75;;;8.80;99.90;;;;;;5033655;28;20061;-81
2021/12/01 08:59:24;;;;;;;3.15;2.90;;;8.90;99.90;;;;;;5033634;28;20056;-81
2021/12/01 09:01:51;;;;;;;5.07;2.95;;;8.80;99.90;;;;;;5033679;28;20056;-81
2021/12/01 09:04:17;;;;;;;4.25;2.85;;;8.80;99.90;;;;;;5032742;28;20060;-81
2021/12/01 09:06:44;;;;;;;2.10;1.90;;;8.80;99.90;;;;;;5032609;28;20049;-81
2021/12/01 09:09:17;;;;;;;4.18;2.15;;;8.80;99.90;;;;;;5032966;28;20057;-81
2021/12/01 09:11:44;;;;;;;3.92;2.20;;;8.80;99.90;;;;;;5032612;28;20060;-81
2021/12/01 09:14:10;;;;;;;4.82;2.42;;;8.90;99.90;;;;;;5033415;28;20054;-81
2021/12/01 09:16:37;;;;;;;13.23;2.40;;;9.00;99.90;;;;;;5032380;28;20059;-81
2021/12/01 09:19:03;;;;;;;6.18;1.98;;;9.00;99.90;;;;;;5032097;28;20060;-79
2021/12/01 09:21:30;;;;;;;6.45;2.60;;;9.00;99.90;;;;;;5031903;28;20046;-81
2021/12/01 09:23:57;;;;;;;13.15;3.45;;;9.00;99.90;;;;;;5033471;28;20053;-81
2021/12/01 09:26:23;;;;;;;5.00;1.95;;;9.00;99.90;;;;;;5033344;28;20127;-82
2021/12/01 09:28:50;;;;;;;7.35;2.15;;;9.00;99.90;;;;;;5034119;28;20075;-80
2021/12/01 09:31:16;;;;;;;10.95;2.30;;;9.10;99.90;;;;;;5032618;28;20049;-79
2021/12/01 09:33:43;;;;;;;7.30;2.08;;;9.10;99.90;;;;;;5032952;28;20390;-81
2021/12/01 09:36:09;;;;;;;3.03;1.60;;;9.20;99.90;;;;;;5033582;28;20075;-80
2021/12/01 09:38:36;;;;;;;3.95;1.45;;;9.10;99.90;;;;;;5032734;28;20057;-80
2021/12/01 09:41:02;;;;;;;8.45;1.75;;;9.10;99.90;;;;;;5032770;28;20058;-80
2021/12/01 09:43:31;;;;;;;5.78;1.77;;;9.10;99.90;;;;;;5033608;28;20056;-80
2021/12/01 09:45:58;;;;;;;18.90;2.67;;;9.10;99.90;;;;;;5031881;28;20057;-81
2021/12/01 09:48:24;;;;;;;11.00;2.03;;;9.10;99.90;;;;;;5036110;28;20522;-80
2021/12/01 09:50:51;;;;;;;7.10;2.28;;;9.10;99.90;;;;;;5038663;28;20057;-81
2021/12/01 09:53:17;;;;;;;8.68;1.55;;;9.10;99.90;;;;;;5038891;28;20062;-79
2021/12/01 09:55:44;;;;;;;5.32;2.65;;;9.10;99.90;;;;;;5039532;28;20054;-81
2021/12/01 09:58:11;;;;;;;9.02;1.15;;;9.00;99.90;;;;;;5038672;28;20045;-81
2021/12/01 10:00:38;;;;;;;5.07;1.77;;;9.00;99.90;;;;;;5039504;28;20428;-80
2021/12/01 10:03:04;;;;;;;6.13;1.65;;;8.90;99.90;;;;;;5039534;28;20056;-80
2021/12/01 10:05:31;;;;;;;10.65;1.88;;;8.90;99.90;;;;;;5038559;28;20055;-80
2021/12/01 10:07:58;;;;;;;4.90;1.58;;;8.90;99.90;;;;;;5039545;28;20171;-80
2021/12/01 10:10:25;;;;;;;3.35;1.48;;;8.80;99.90;;;;;;5040015;28;20053;-80
2021/12/01 10:12:52;;;;;;;9.68;1.38;;;8.80;99.90;;;;;;5039397;28;20042;-80
2021/12/01 10:15:19;;;;;;;8.05;1.80;;;8.80;99.90;;;;;;5038439;28;20453;-79
2021/12/01 10:17:45;;;;;;;5.35;1.38;;;8.80;99.90;;;;;;5039419;28;20053;-80
2021/12/01 10:20:12;;;;;;;5.85;1.55;;;8.90;99.90;;;;;;5039710;28;20057;-80
2021/12/01 10:22:38;;;;;;;7.45;1.90;;;8.90;99.90;;;;;;5038641;28;20053;-80
2021/12/01 10:25:05;;;;;;;11.30;1.70;;;8.80;99.90;;;;;;5038683;28;20053;-80
2021/12/01 10:27:32;;;;;;;8.73;2.03;;;8.80;99.90;;;;;;5038949;28;20494;-80
2021/12/01 10:29:58;;;;;;;8.38;1.80;;;8.90;99.90;;;;;;5039276;28;20056;-80
2021/12/01 10:32:25;;;;;;;6.53;1.83;;;8.90;99.90;;;;;;5037988;28;20049;-80
2021/12/01 10:34:53;;;;;;;9.80;1.60;;;8.90;99.90;;;;;;5038273;28;20057;-79
2021/12/01 10:37:23;;;;;;;6.60;1.90;;;8.90;99.90;;;;;;5039243;28;20093;-80
2021/12/01 10:39:49;;;;;;;8.25;1.65;;;8.90;99.90;;;;;;5038489;28;20052;-80
2021/12/01 10:42:16;;;;;;;9.65;1.30;;;8.90;99.90;;;;;;5038221;28;20050;-80
2021/12/01 10:44:42;;;;;;;9.80;2.15;;;8.90;99.90;;;;;;5039672;28;20060;-79
2021/12/01 10:47:09;;;;;;;8.00;2.15;;;8.90;99.90;;;;;;5038146;28;20091;-80
2021/12/01 10:49:37;;;;;;;13.00;2.83;;;9.00;99.90;;;;;;5038123;28;20057;-80
2021/12/01 10:52:03;;;;;;;10.00;2.22;;;8.90;99.90;;;;;;5038043;28;20049;-80
2021/12/01 10:54:30;;;;;;;18.98;3.08;;;8.90;99.90;;;;;;5039378;28;20497;-80
2021/12/01 10:56:56;;;;;;;11.82;3.65;;;8.90;99.90;;;;;;5038036;28;20057;-80
2021/12/01 10:59:23;;;;;;;16.10;2.15;;;9.00;99.90;;;;;;5036713;28;20053;-79
2021/12/01 11:01:49;;;;;;;9.15;1.98;;;9.00;99.90;;;;;;5034701;28;20465;-80
2021/12/01 11:04:16;;;;;;;9.63;2.72;;;9.00;99.90;;;;;;5036198;28;20050;-80
2021/12/01 11:06:43;;;;;;;14.18;2.33;;;9.00;99.90;;;;;;5036353;28;20045;-80
2021/12/01 11:09:09;;;;;;;9.77;2.03;;;9.00;99.90;;;;;;5035202;28;20064;-80
2021/12/01 11:11:38;;;;;;;8.82;2.08;;;9.00;99.90;;;;;;5036124;28;20041;-80
2021/12/01 11:14:04;;;;;;;6.20;1.83;;;9.00;99.90;;;;;;5035335;28;20103;-80
2021/12/01 11:16:31;;;;;;;7.57;1.42;;;9.10;99.90;;;;;;5035715;28;20386;-81
2021/12/01 11:18:57;;;;;;;9.93;2.35;;;9.00;99.90;;;;;;5034438;28;20053;-79
2021/12/01 11:21:24;;;;;;;8.75;1.77;;;9.00;99.90;;;;;;5036770;28;20050;-79
2021/12/01 11:23:51;;;;;;;8.15;1.60;;;9.00;99.90;;;;;;5035734;28;20056;-80
2021/12/01 11:26:18;;;;;;;6.72;2.25;;;9.10;99.90;;;;;;5035881;28;20052;-79
2021/12/01 11:28:44;;;;;;;10.63;2.50;;;9.00;99.90;;;;;;5034767;28;20056;-80
2021/12/01 11:31:11;;;;;;;9.25;2.53;;;8.90;99.90;;;;;;5035740;28;20055;-80
2021/12/01 11:33:43;;;;;;;7.45;2.30;;;8.90;99.90;;;;;;5035024;28;20056;-79
2021/12/01 11:36:09;;;;;;;10.32;2.60;;;8.80;99.90;;;;;;5034762;28;20477;-79
2021/12/01 11:38:36;;;;;;;7.80;2.10;;;8.80;99.90;;;;;;5035679;28;20503;-79
2021/12/01 11:41:02;;;;;;;17.75;2.38;;;8.90;99.90;;;;;;5035799;28;20053;-80
2021/12/01 11:43:29;;;;;;;7.85;1.17;;;8.90;99.90;;;;;;5034980;28;20420;-79
2021/12/01 11:45:56;;;;;;;8.38;1.73;;;8.80;99.90;;;;;;5036387;28;20050;-80
2021/12/01 11:48:22;;;;;;;11.45;2.17;;;8.90;99.90;;;;;;5034466;28;20054;-79
2021/12/01 11:50:49;;;;;;;15.23;2.88;;;8.90;99.90;;;;;;5035128;28;20084;-80
2021/12/01 11:53:16;;;;;;;14.32;2.58;;;9.00;99.90;;;;;;5034717;28;20100;-80
2021/12/01 11:55:42;;;;;;;11.88;2.45;;;9.10;99.90;;;;;;5035431;28;20046;-79
2021/12/01 11:58:10;;;;;;;16.13;2.88;;;9.10;99.90;;;;;;5034493;28;20049;-80
2021/12/01 12:00:36;;;;;;;14.35;3.22;;;9.10;99.90;;;;;;5035676;28;20092;-78
2021/12/01 12:03:03;;;;;;;15.00;3.05;;;9.20;99.90;;;;;;5034200;28;20053;-79
2021/12/01 12:05:29;;;;;;;18.45;2.92;;;9.10;99.90;;;;;;5034106;28;20064;-78
2021/12/01 12:07:56;;;;;;;17.75;4.78;;;9.10;99.90;;;;;;5035171;28;20058;-80
2021/12/01 12:10:24;;;;;;;21.52;3.53;;;9.20;99.90;;;;;;5035136;28;20471;-79
2021/12/01 12:12:55;;;;;;;10.32;2.63;;;9.20;99.90;;;;;;5035412;28;20111;-80
2021/12/01 12:15:21;;;;;;;15.32;3.20;;;9.10;99.90;;;;;;5035094;28;20491;-79
2021/12/01 12:17:48;;;;;;;12.07;3.75;;;9.10;99.90;;;;;;5033986;28;20052;-79
2021/12/01 12:20:20;;;;;;;15.15;3.67;;;9.20;99.90;;;;;;5035423;28;20054;-79
2021/12/01 12:22:47;;;;;;;16.98;3.03;;;9.10;99.90;;;;;;5033836;28;20057;-79
2021/12/01 12:25:15;;;;;;;14.45;3.80;;;9.00;99.90;;;;;;5034200;28;20064;-79
2021/12/01 12:27:41;;;;;;;15.60;3.25;;;9.00;99.90;;;;;;5034074;28;20053;-79
2021/12/01 12:30:08;;;;;;;11.65;2.83;;;8.90;99.90;;;;;;5034363;28;20065;-79
2021/12/01 12:32:34;;;;;;;10.60;3.05;;;8.80;99.90;;;;;;5034132;28;20056;-80
2021/12/01 12:35:02;;;;;;;20.13;2.65;;;8.70;99.90;;;;;;5033216;28;20057;-81
2021/12/01 12:37:30;;;;;;;13.00;4.15;;;8.70;99.90;;;;;;5034463;28;20053;-80
2021/12/01 12:39:57;;;;;;;19.27;4.10;;;8.60;99.90;;;;;;5033803;28;20420;-81
2021/12/01 12:42:23;;;;;;;16.63;3.80;;;8.70;99.90;;;;;;5034365;28;20369;-81
2021/12/01 12:44:50;;;;;;;16.58;4.47;;;8.70;99.90;;;;;;5032982;28;20055;-79
2021/12/01 12:47:16;;;;;;;13.90;3.38;;;8.60;99.90;;;;;;5034413;28;20053;-79
2021/12/01 12:49:43;;;;;;;18.08;4.07;;;8.60;99.90;;;;;;5033824;28;20103;-79
2021/12/01 12:52:09;;;;;;;12.23;3.45;;;8.60;99.90;;;;;;5034096;28;20053;-80